Time;durP1;ratioP1;P1;durP2;ratioP2;P2;SDS_P1;SDS_P2;PMS_P1;PMS_P2;Temp;Humidity;BMP_temperature;BMP_pressure;BME280_temperature;BME280_humidity;BME280_pressure;Samples;Min_cycle;Max_cycle;Signal;HPM_P1;HPM_P2
2022/07/17 00:01:19;;;;;;;5.30;3.60;;;23.60;49.50;;;;;;5052118;28;20187;-72
2022/07/17 00:03:44;;;;;;;3.43;3.13;;;23.60;49.50;;;;;;5049997;28;20206;-72
2022/07/17 00:06:10;;;;;;;6.70;4.30;;;23.60;49.70;;;;;;5049921;28;20484;-72
2022/07/17 00:08:35;;;;;;;5.50;3.87;;;23.50;49.70;;;;;;5050431;28;20405;-73
2022/07/17 00:11:01;;;;;;;6.00;3.93;;;23.50;49.70;;;;;;5052999;28;20188;-73
2022/07/17 00:13:27;;;;;;;3.97;3.57;;;23.40;50.00;;;;;;5051373;28;20742;-73
2022/07/17 00:15:52;;;;;;;6.07;4.00;;;23.40;49.90;;;;;;5050782;28;20175;-72
2022/07/17 00:18:18;;;;;;;4.60;4.03;;;23.40;50.10;;;;;;5050265;28;20187;-71
2022/07/17 00:20:44;;;;;;;4.90;3.87;;;23.30;50.10;;;;;;5049734;28;20267;-72
2022/07/17 00:23:10;;;;;;;6.37;3.60;;;23.30;50.20;;;;;;5037080;28;20782;-72
2022/07/17 00:25:35;;;;;;;6.30;3.97;;;23.30;50.80;;;;;;5051758;28;20210;-72
2022/07/17 00:28:01;;;;;;;4.20;3.77;;;23.30;50.40;;;;;;5053044;28;20442;-72
2022/07/17 00:30:27;;;;;;;5.27;3.50;;;23.20;50.40;;;;;;5048217;28;21197;-73
2022/07/17 00:32:53;;;;;;;4.23;3.93;;;23.20;50.80;;;;;;5052227;28;20206;-72
2022/07/17 00:35:19;;;;;;;3.83;3.30;;;23.10;50.60;;;;;;5047195;28;20441;-72
2022/07/17 00:37:47;;;;;;;4.17;3.77;;;23.10;50.90;;;;;;5048515;28;20183;-72
2022/07/17 00:40:17;;;;;;;5.07;3.90;;;23.10;50.80;;;;;;5049716;28;20202;-71
2022/07/17 00:42:43;;;;;;;7.00;4.20;;;23.10;50.80;;;;;;5050616;28;20449;-72
2022/07/17 00:45:10;;;;;;;4.43;3.60;;;23.10;50.90;;;;;;5055935;28;20834;-71
2022/07/17 00:47:48;;;;;;;4.53;4.10;;;23.00;50.90;;;;;;5049137;28;20253;-72
2022/07/17 00:50:14;;;;;;;4.43;4.03;;;23.00;51.00;;;;;;5033222;28;20429;-72
2022/07/17 00:52:40;;;;;;;4.70;3.70;;;23.00;51.00;;;;;;5050391;28;20853;-72
2022/07/17 00:55:07;;;;;;;4.43;3.60;;;23.00;51.00;;;;;;5052481;28;20517;-72
2022/07/17 00:57:33;;;;;;;4.40;3.83;;;23.00;51.10;;;;;;5049461;28;20249;-72
2022/07/17 00:59:59;;;;;;;4.13;3.73;;;23.00;51.20;;;;;;5049739;28;20476;-73
2022/07/17 01:02:24;;;;;;;4.40;4.00;;;23.00;51.20;;;;;;5036890;28;20492;-72
2022/07/17 01:04:50;;;;;;;4.50;4.10;;;23.00;51.90;;;;;;5048709;28;20613;-71
2022/07/17 01:07:16;;;;;;;4.00;3.60;;;22.90;51.40;;;;;;5050475;28;20190;-72
2022/07/17 01:09:42;;;;;;;5.03;4.30;;;22.90;51.50;;;;;;5046219;28;20225;-72
2022/07/17 01:12:09;;;;;;;3.60;3.30;;;22.80;51.60;;;;;;5049395;28;20497;-71
2022/07/17 01:14:34;;;;;;;6.13;4.00;;;22.80;51.70;;;;;;5047127;28;20175;-72
2022/07/17 01:17:01;;;;;;;4.87;4.30;;;22.80;51.80;;;;;;5048421;28;20453;-72
2022/07/17 01:19:27;;;;;;;6.27;4.03;;;22.80;52.00;;;;;;5053136;28;20176;-71
2022/07/17 01:21:52;;;;;;;4.20;3.80;;;22.70;52.00;;;;;;5051228;28;20546;-71
2022/07/17 01:24:19;;;;;;;5.10;3.90;;;22.70;52.10;;;;;;5048487;28;20195;-71
2022/07/17 01:26:48;;;;;;;5.60;4.73;;;22.70;52.30;;;;;;5049550;28;20212;-73
2022/07/17 01:29:14;;;;;;;4.50;4.10;;;22.60;52.40;;;;;;5051421;28;20524;-72
2022/07/17 01:31:41;;;;;;;4.97;3.83;;;22.60;52.50;;;;;;5050738;28;20814;-72
2022/07/17 01:34:08;;;;;;;4.60;3.93;;;22.60;52.80;;;;;;5047023;28;20446;-72
2022/07/17 01:36:34;;;;;;;5.73;3.77;;;22.60;53.00;;;;;;5050132;28;20807;-71
2022/07/17 01:39:00;;;;;;;4.03;3.63;;;22.60;53.10;;;;;;5048464;28;20920;-72
2022/07/17 01:41:25;;;;;;;4.20;3.80;;;22.50;53.40;;;;;;5048988;28;20584;-72
2022/07/17 01:43:51;;;;;;;5.43;4.10;;;22.50;53.40;;;;;;5028473;28;20207;-72
2022/07/17 01:46:16;;;;;;;4.67;4.20;;;22.50;53.40;;;;;;5050816;28;20225;-71
2022/07/17 01:48:42;;;;;;;6.70;4.20;;;22.30;53.50;;;;;;5051058;28;20909;-72
2022/07/17 01:51:08;;;;;;;4.10;3.80;;;22.30;53.70;;;;;;5047360;28;20198;-72
2022/07/17 01:53:33;;;;;;;6.83;3.90;;;22.30;53.80;;;;;;5050848;28;20330;-70
2022/07/17 01:55:59;;;;;;;4.60;4.20;;;22.20;53.80;;;;;;5049454;28;20669;-71
2022/07/17 01:58:25;;;;;;;4.33;3.93;;;22.20;53.70;;;;;;5047650;28;20263;-71
2022/07/17 02:00:51;;;;;;;8.47;4.70;;;22.20;53.60;;;;;;5049016;28;20533;-72
2022/07/17 02:03:17;;;;;;;4.20;3.80;;;22.20;53.60;;;;;;5052938;28;20210;-72
2022/07/17 02:05:43;;;;;;;6.20;4.10;;;22.20;53.60;;;;;;5053410;28;20483;-72
2022/07/17 02:08:09;;;;;;;5.63;4.47;;;22.10;53.60;;;;;;5056172;28;20794;-71
2022/07/17 02:10:35;;;;;;;5.33;3.90;;;22.10;53.60;;;;;;5049421;28;20440;-71
2022/07/17 02:13:01;;;;;;;5.50;4.20;;;22.10;53.70;;;;;;5050973;28;21183;-72
2022/07/17 02:15:27;;;;;;;4.40;3.63;;;22.00;53.80;;;;;;5030980;28;20195;-71
2022/07/17 02:17:52;;;;;;;5.37;4.40;;;21.90;54.00;;;;;;5052301;28;20226;-71
2022/07/17 02:20:18;;;;;;;4.53;4.13;;;21.90;54.40;;;;;;5045877;28;20489;-71
2022/07/17 02:22:44;;;;;;;5.30;4.80;;;21.80;54.70;;;;;;5051999;28;20207;-71
2022/07/17 02:25:12;;;;;;;7.10;4.60;;;21.80;55.20;;;;;;5053082;28;20749;-72
2022/07/17 02:27:38;;;;;;;5.40;4.90;;;21.70;55.50;;;;;;5048837;28;20471;-71
2022/07/17 02:30:06;;;;;;;5.20;4.73;;;21.70;55.90;;;;;;5045552;28;20457;-73
2022/07/17 02:32:32;;;;;;;4.93;4.47;;;21.70;56.30;;;;;;5048251;28;20945;-72
2022/07/17 02:34:57;;;;;;;5.13;4.20;;;21.60;56.40;;;;;;5050507;28;20448;-72
2022/07/17 02:37:23;;;;;;;4.20;3.80;;;21.60;56.70;;;;;;5050674;28;20268;-72
2022/07/17 02:39:55;;;;;;;5.50;5.00;;;21.50;56.90;;;;;;5048672;28;20183;-72
2022/07/17 02:42:22;;;;;;;5.27;4.77;;;21.50;57.30;;;;;;5049058;28;20195;-72
2022/07/17 02:44:48;;;;;;;4.90;4.50;;;21.40;57.40;;;;;;5046628;28;20519;-72
2022/07/17 02:47:22;;;;;;;4.77;4.37;;;21.40;57.50;;;;;;5051610;28;20442;-71
2022/07/17 02:49:48;;;;;;;5.67;5.10;;;21.40;57.80;;;;;;5048372;28;20467;-71
2022/07/17 02:52:14;;;;;;;6.60;5.40;;;21.30;58.00;;;;;;5039267;28;20544;-71
2022/07/17 02:54:39;;;;;;;5.73;5.13;;;21.30;58.20;;;;;;5051097;28;20442;-72
2022/07/17 02:57:05;;;;;;;6.03;5.40;;;21.30;58.60;;;;;;5052026;22;20354;-68
2022/07/17 02:59:30;;;;;;;5.70;5.20;;;21.30;58.70;;;;;;5034449;28;20223;-68
2022/07/17 03:01:56;;;;;;;7.63;5.13;;;21.20;58.80;;;;;;5030824;28;20212;-66
2022/07/17 03:04:21;;;;;;;6.20;5.60;;;21.20;59.10;;;;;;5032865;28;20593;-69
2022/07/17 03:06:47;;;;;;;6.80;5.00;;;21.10;59.10;;;;;;5030049;28;20226;-69
2022/07/17 03:09:12;;;;;;;5.43;4.90;;;21.10;59.50;;;;;;5031497;28;20220;-69
2022/07/17 03:11:38;;;;;;;5.37;4.87;;;21.00;59.40;;;;;;5028671;28;20195;-68
2022/07/17 03:14:04;;;;;;;5.10;4.60;;;21.00;59.50;;;;;;5030067;28;20676;-68
2022/07/17 03:16:29;;;;;;;6.40;4.57;;;20.90;59.50;;;;;;5029002;28;20249;-68
2022/07/17 03:18:55;;;;;;;5.23;4.80;;;20.90;59.60;;;;;;5010582;28;20213;-68
2022/07/17 03:21:21;;;;;;;8.40;5.30;;;20.90;59.50;;;;;;5014437;28;20217;-68
2022/07/17 03:23:46;;;;;;;5.40;4.90;;;20.80;59.40;;;;;;5032165;28;20262;-69
2022/07/17 03:26:12;;;;;;;5.53;4.50;;;20.80;59.50;;;;;;5012351;28;20253;-68
2022/07/17 03:28:37;;;;;;;5.30;4.90;;;20.80;59.60;;;;;;5028136;28;20176;-68
2022/07/17 03:31:03;;;;;;;5.60;5.10;;;20.70;59.80;;;;;;5026712;28;20179;-68
2022/07/17 03:33:29;;;;;;;6.10;5.50;;;20.70;60.80;;;;;;5028134;28;20207;-69
2022/07/17 03:35:55;;;;;;;7.80;5.20;;;20.70;60.10;;;;;;5010768;28;20211;-69
2022/07/17 03:38:21;;;;;;;5.80;4.97;;;20.60;60.50;;;;;;5017937;28;20188;-69
2022/07/17 03:40:47;;;;;;;6.30;4.50;;;20.50;60.70;;;;;;5011066;28;20496;-68
2022/07/17 03:43:13;;;;;;;6.03;5.33;;;20.50;60.70;;;;;;5032517;28;20786;-69
2022/07/17 03:45:39;;;;;;;6.10;4.63;;;20.50;60.70;;;;;;5028415;28;20547;-69
2022/07/17 03:48:05;;;;;;;5.60;5.17;;;20.40;60.90;;;;;;5009486;28;20445;-68
2022/07/17 03:50:31;;;;;;;5.87;5.37;;;20.30;60.90;;;;;;5012094;28;20246;-69
2022/07/17 03:52:56;;;;;;;9.10;5.20;;;20.30;60.80;;;;;;5009614;28;20258;-69
2022/07/17 03:55:22;;;;;;;5.03;4.63;;;20.30;60.90;;;;;;5027603;28;20187;-69
2022/07/17 03:57:55;;;;;;;7.53;5.17;;;20.30;60.90;;;;;;5028086;28;20224;-69
2022/07/17 04:00:21;;;;;;;5.90;4.93;;;20.20;61.10;;;;;;5031400;28;20184;-70
2022/07/17 04:02:47;;;;;;;5.30;4.80;;;20.20;61.10;;;;;;5030680;28;20442;-70
2022/07/17 04:05:12;;;;;;;5.33;4.60;;;20.10;60.90;;;;;;5025873;28;20578;-69
2022/07/17 04:07:40;;;;;;;5.37;4.87;;;20.00;61.00;;;;;;5026525;28;20690;-69
2022/07/17 04:10:06;;;;;;;5.87;5.30;;;20.00;61.40;;;;;;5010481;28;20183;-69
2022/07/17 04:12:33;;;;;;;6.10;5.47;;;20.00;61.60;;;;;;5030641;28;20438;-70
2022/07/17 04:14:59;;;;;;;7.23;6.63;;;19.90;61.60;;;;;;5028413;28;20444;-69
2022/07/17 04:17:25;;;;;;;4.87;4.43;;;19.90;61.70;;;;;;4999947;28;20508;-70
2022/07/17 04:19:50;;;;;;;5.40;5.00;;;19.90;61.70;;;;;;5009292;28;20181;-70
2022/07/17 04:22:17;;;;;;;5.60;5.10;;;19.70;62.00;;;;;;5010439;28;20418;-70
2022/07/17 04:24:43;;;;;;;5.60;5.10;;;19.80;61.90;;;;;;5033976;28;20355;-70
2022/07/17 04:27:09;;;;;;;4.80;4.43;;;19.70;61.60;;;;;;5010113;28;20478;-70
2022/07/17 04:29:35;;;;;;;6.40;4.70;;;19.70;61.60;;;;;;5031812;28;20461;-70
2022/07/17 04:32:02;;;;;;;7.87;5.17;;;19.70;61.10;;;;;;5028141;28;20820;-70
2022/07/17 04:34:27;;;;;;;5.30;4.70;;;19.80;61.10;;;;;;5033770;28;20581;-70
2022/07/17 04:36:53;;;;;;;6.20;4.83;;;19.70;60.80;;;;;;5014037;28;20529;-70
2022/07/17 04:39:18;;;;;;;5.77;4.97;;;19.70;60.80;;;;;;5034279;28;20269;-70
2022/07/17 04:41:44;;;;;;;4.93;4.53;;;19.70;60.70;;;;;;5000170;28;20435;-69
2022/07/17 04:44:10;;;;;;;9.10;8.20;;;19.70;60.80;;;;;;5011915;28;20270;-69
2022/07/17 04:46:35;;;;;;;6.80;6.20;;;19.70;60.70;;;;;;5014204;28;20208;-69
2022/07/17 04:49:01;;;;;;;6.63;5.93;;;19.60;60.80;;;;;;5025388;28;20200;-69
2022/07/17 04:51:27;;;;;;;7.27;6.10;;;19.60;61.10;;;;;;5011576;28;20183;-69
2022/07/17 04:53:52;;;;;;;6.30;5.40;;;19.60;61.00;;;;;;5030501;28;20190;-69
2022/07/17 04:56:18;;;;;;;5.57;4.63;;;19.60;61.00;;;;;;5030011;28;20661;-70
2022/07/17 04:58:43;;;;;;;5.70;4.43;;;19.60;60.90;;;;;;5026943;28;20188;-70
2022/07/17 05:01:09;;;;;;;6.93;4.70;;;19.60;60.90;;;;;;5027573;28;20219;-69
2022/07/17 05:03:35;;;;;;;6.63;5.93;;;19.60;60.60;;;;;;5027009;28;20533;-69
2022/07/17 05:06:00;;;;;;;5.20;4.70;;;19.60;60.70;;;;;;4991306;28;20208;-70
2022/07/17 05:08:26;;;;;;;8.00;5.33;;;19.60;60.60;;;;;;5029148;28;20181;-69
2022/07/17 05:10:51;;;;;;;7.00;5.23;;;19.60;60.50;;;;;;5025541;28;20693;-69
2022/07/17 05:13:17;;;;;;;5.90;5.40;;;19.60;60.20;;;;;;5031420;28;20176;-69
2022/07/17 05:15:43;;;;;;;4.30;4.00;;;19.70;60.00;;;;;;5030360;28;20649;-69
2022/07/17 05:18:08;;;;;;;4.40;4.00;;;19.60;59.90;;;;;;5023610;28;20673;-69
2022/07/17 05:20:34;;;;;;;4.77;4.37;;;19.60;59.70;;;;;;5008455;28;20194;-69
2022/07/17 05:23:00;;;;;;;6.63;6.13;;;19.70;59.80;;;;;;5030010;28;20188;-68
2022/07/17 05:25:26;;;;;;;5.30;4.80;;;19.70;59.80;;;;;;5028353;28;20470;-68
2022/07/17 05:27:51;;;;;;;6.90;3.43;;;19.70;59.70;;;;;;5004743;28;20184;-68
2022/07/17 05:30:17;;;;;;;7.70;5.33;;;19.80;59.70;;;;;;5025828;28;20653;-68
2022/07/17 05:32:43;;;;;;;6.30;4.70;;;19.80;59.70;;;;;;5023707;28;20545;-68
2022/07/17 05:35:09;;;;;;;4.97;4.30;;;19.80;59.50;;;;;;5010619;28;20598;-68
2022/07/17 05:37:34;;;;;;;5.00;4.20;;;19.90;59.60;;;;;;5007676;28;20210;-68
2022/07/17 05:40:00;;;;;;;4.40;4.00;;;20.00;59.50;;;;;;5026317;28;20196;-67
2022/07/17 05:42:26;;;;;;;5.17;4.40;;;19.90;59.20;;;;;;5028616;28;20188;-68
2022/07/17 05:44:51;;;;;;;6.80;6.10;;;20.00;59.40;;;;;;5025842;28;20180;-68
2022/07/17 05:47:17;;;;;;;8.03;5.03;;;20.00;59.30;;;;;;5012360;28;20200;-68
2022/07/17 05:49:42;;;;;;;4.40;4.00;;;20.00;59.20;;;;;;5025182;28;20184;-68
2022/07/17 05:52:08;;;;;;;4.80;4.30;;;20.00;59.30;;;;;;5025577;28;20509;-69
2022/07/17 05:54:34;;;;;;;6.73;5.80;;;20.00;59.20;;;;;;5023565;28;20191;-69
2022/07/17 05:57:00;;;;;;;5.20;4.70;;;20.00;59.00;;;;;;5002729;28;20215;-68
2022/07/17 05:59:26;;;;;;;5.70;5.20;;;20.10;58.70;;;;;;5023283;28;20188;-69
2022/07/17 06:01:51;;;;;;;5.20;4.70;;;20.10;58.70;;;;;;5006866;28;20435;-69
2022/07/17 06:04:17;;;;;;;5.33;4.83;;;20.10;58.50;;;;;;5000434;28;20334;-69
2022/07/17 06:06:43;;;;;;;3.93;3.60;;;20.20;58.30;;;;;;5026574;28;20694;-68
2022/07/17 06:09:08;;;;;;;6.20;4.10;;;20.20;58.30;;;;;;5024413;28;20188;-68
2022/07/17 06:11:34;;;;;;;6.30;5.20;;;20.30;58.20;;;;;;5010063;28;20196;-66
2022/07/17 06:14:00;;;;;;;7.20;4.33;;;20.30;58.20;;;;;;5018882;28;20185;-68
2022/07/17 06:16:26;;;;;;;4.30;3.67;;;20.40;58.00;;;;;;5021802;28;20462;-68
2022/07/17 06:18:52;;;;;;;5.10;4.20;;;20.40;57.80;;;;;;5022273;28;20189;-68
2022/07/17 06:21:17;;;;;;;7.00;3.90;;;20.40;57.80;;;;;;5011230;28;20189;-69
2022/07/17 06:23:43;;;;;;;3.90;3.60;;;20.40;57.90;;;;;;5024289;28;20569;-69
2022/07/17 06:26:09;;;;;;;4.10;3.70;;;20.50;57.60;;;;;;4986023;28;20215;-69
2022/07/17 06:28:34;;;;;;;5.00;3.23;;;20.50;57.60;;;;;;5026668;28;20222;-69
2022/07/17 06:31:00;;;;;;;5.03;4.00;;;20.50;57.50;;;;;;4998457;28;20188;-69
2022/07/17 06:33:26;;;;;;;6.30;3.70;;;20.60;57.40;;;;;;5011077;28;20188;-69
2022/07/17 06:35:51;;;;;;;3.43;2.90;;;20.60;57.30;;;;;;5027222;28;20211;-69
2022/07/17 06:38:17;;;;;;;4.50;3.80;;;20.70;57.30;;;;;;5028979;28;20189;-69
2022/07/17 06:40:43;;;;;;;3.83;3.53;;;20.80;57.10;;;;;;5026997;28;20192;-69
2022/07/17 06:43:09;;;;;;;4.10;3.50;;;20.80;57.20;;;;;;5005881;28;20189;-68
2022/07/17 06:45:35;;;;;;;4.10;3.70;;;20.80;57.80;;;;;;5007064;28;20470;-68
2022/07/17 06:48:01;;;;;;;13.80;4.30;;;20.90;57.00;;;;;;5008255;28;20266;-68
2022/07/17 06:50:27;;;;;;;5.20;3.70;;;21.00;57.10;;;;;;5017531;28;20274;-68
2022/07/17 06:52:52;;;;;;;3.90;3.30;;;21.00;56.80;;;;;;5028068;28;20526;-68
2022/07/17 06:55:18;;;;;;;4.07;3.77;;;21.00;56.80;;;;;;5028471;28;20439;-68
2022/07/17 06:57:44;;;;;;;4.70;4.30;;;21.10;56.60;;;;;;5028769;28;20223;-70
2022/07/17 07:00:10;;;;;;;4.90;4.40;;;21.20;56.70;;;;;;5025383;28;20185;-68
2022/07/17 07:02:36;;;;;;;10.27;8.50;;;21.20;56.60;;;;;;5032031;28;20191;-69
2022/07/17 07:05:03;;;;;;;8.67;7.53;;;21.30;56.40;;;;;;5024770;28;20442;-69
2022/07/17 07:07:28;;;;;;;4.00;3.67;;;21.20;56.40;;;;;;5024231;28;20462;-69
2022/07/17 07:09:54;;;;;;;5.13;4.63;;;21.30;56.80;;;;;;5010652;28;20957;-69
2022/07/17 07:12:19;;;;;;;4.47;4.07;;;21.40;56.20;;;;;;5025130;28;20203;-69
2022/07/17 07:14:59;;;;;;;6.30;3.37;;;21.40;56.30;;;;;;5026933;28;20184;-68
2022/07/17 07:17:25;;;;;;;4.63;4.17;;;21.50;56.30;;;;;;5028946;28;20204;-68
2022/07/17 07:19:50;;;;;;;3.70;3.40;;;21.50;55.90;;;;;;5009933;28;20427;-68
2022/07/17 07:22:16;;;;;;;3.67;3.37;;;21.70;55.80;;;;;;5026528;28;20272;-68
2022/07/17 07:24:42;;;;;;;3.67;3.37;;;21.70;55.70;;;;;;5006913;28;20207;-68
2022/07/17 07:27:07;;;;;;;6.10;4.93;;;21.70;55.90;;;;;;5025750;28;20216;-68
2022/07/17 07:29:33;;;;;;;5.00;4.50;;;21.70;55.80;;;;;;5026003;28;20447;-68
2022/07/17 07:31:59;;;;;;;6.13;4.47;;;21.80;55.70;;;;;;5025353;28;20192;-69
2022/07/17 07:34:25;;;;;;;5.07;4.57;;;21.90;55.50;;;;;;5029195;28;20550;-69
2022/07/17 07:36:50;;;;;;;4.17;3.63;;;21.90;55.40;;;;;;5016958;28;20215;-68
2022/07/17 07:39:16;;;;;;;4.90;4.40;;;22.00;55.30;;;;;;5023510;28;20447;-68
2022/07/17 07:41:41;;;;;;;7.17;3.70;;;22.00;55.50;;;;;;5021941;28;20200;-68
2022/07/17 07:44:07;;;;;;;3.67;3.13;;;22.10;55.00;;;;;;5007190;28;20193;-68
2022/07/17 07:46:34;;;;;;;5.20;3.80;;;22.20;54.40;;;;;;5024324;28;20212;-69
2022/07/17 07:49:00;;;;;;;4.73;4.20;;;22.20;54.60;;;;;;5010144;28;20219;-69
2022/07/17 07:51:26;;;;;;;6.27;5.40;;;22.30;54.70;;;;;;4994186;28;20802;-70
2022/07/17 07:53:52;;;;;;;7.37;4.60;;;22.20;54.50;;;;;;4996957;28;20454;-70
2022/07/17 07:56:17;;;;;;;6.17;5.57;;;22.30;54.50;;;;;;5033106;28;20463;-70
2022/07/17 07:58:43;;;;;;;10.30;6.80;;;22.40;54.50;;;;;;5030901;28;20456;-70
2022/07/17 08:01:14;;;;;;;4.90;4.33;;;22.50;54.50;;;;;;4998766;28;20698;-71
2022/07/17 08:03:40;;;;;;;7.43;6.70;;;22.60;54.20;;;;;;5016451;28;20214;-70
2022/07/17 08:06:05;;;;;;;6.83;5.60;;;22.50;54.40;;;;;;5029389;28;20987;-68
2022/07/17 08:08:31;;;;;;;8.57;7.77;;;22.60;54.60;;;;;;5026846;28;20195;-69
2022/07/17 08:10:57;;;;;;;9.27;7.50;;;22.70;54.40;;;;;;5014628;28;20673;-70
2022/07/17 08:13:22;;;;;;;6.63;6.03;;;22.70;54.40;;;;;;5011813;28;20208;-69
2022/07/17 08:15:48;;;;;;;4.50;3.93;;;22.80;54.60;;;;;;5029598;28;20210;-69
2022/07/17 08:18:14;;;;;;;4.77;4.27;;;22.80;54.60;;;;;;5028597;28;20614;-69
2022/07/17 08:20:39;;;;;;;24.37;4.60;;;22.90;54.40;;;;;;5026264;28;20186;-70
2022/07/17 08:23:05;;;;;;;5.40;3.07;;;23.00;54.40;;;;;;5010424;28;20270;-70
2022/07/17 08:25:31;;;;;;;4.10;3.73;;;23.10;53.80;;;;;;5021006;28;20213;-70
2022/07/17 08:27:57;;;;;;;3.50;3.20;;;23.20;53.50;;;;;;5025682;28;20180;-70
2022/07/17 08:30:22;;;;;;;4.20;3.80;;;23.20;53.90;;;;;;5027753;28;20435;-70
2022/07/17 08:32:48;;;;;;;4.80;3.70;;;23.30;53.70;;;;;;5027391;28;20230;-69
2022/07/17 08:35:14;;;;;;;3.73;3.13;;;23.40;53.40;;;;;;5010468;28;20195;-69
2022/07/17 08:37:51;;;;;;;3.97;3.57;;;23.40;53.40;;;;;;5032938;28;20215;-70
2022/07/17 08:40:23;;;;;;;6.67;4.37;;;23.40;53.80;;;;;;5009416;28;20172;-70
2022/07/17 08:42:50;;;;;;;3.17;2.87;;;23.50;53.70;;;;;;5025965;28;20707;-70
2022/07/17 08:45:16;;;;;;;4.43;3.47;;;23.60;53.40;;;;;;5029369;28;20873;-69
2022/07/17 08:47:42;;;;;;;4.30;3.50;;;23.70;53.30;;;;;;5028799;28;20451;-70
2022/07/17 08:50:10;;;;;;;3.93;3.30;;;23.70;53.30;;;;;;5022658;28;20533;-69
2022/07/17 08:52:40;;;;;;;4.90;3.00;;;23.80;53.20;;;;;;5027623;28;20435;-69
2022/07/17 08:55:12;;;;;;;4.60;3.67;;;23.90;52.60;;;;;;5024617;28;20880;-70
2022/07/17 08:57:39;;;;;;;3.43;3.00;;;23.90;52.60;;;;;;5009419;28;20470;-70
2022/07/17 09:00:06;;;;;;;3.20;2.90;;;24.10;52.20;;;;;;5008413;28;20422;-69
2022/07/17 09:02:31;;;;;;;4.70;3.03;;;24.10;51.90;;;;;;5026402;28;20443;-70
2022/07/17 09:04:57;;;;;;;4.60;3.20;;;24.20;52.10;;;;;;5021456;28;20812;-70
2022/07/17 09:07:23;;;;;;;4.93;4.43;;;24.30;51.70;;;;;;5028299;28;20205;-70
2022/07/17 09:09:52;;;;;;;7.30;3.60;;;24.40;51.40;;;;;;5009741;28;20688;-69
2022/07/17 09:12:24;;;;;;;3.57;3.27;;;24.40;51.60;;;;;;5028401;28;20724;-69
2022/07/17 09:14:50;;;;;;;3.17;2.87;;;24.50;51.40;;;;;;5011647;28;20465;-70
2022/07/17 09:17:15;;;;;;;3.83;3.40;;;24.60;51.30;;;;;;5026567;28;20907;-70
2022/07/17 09:19:42;;;;;;;4.93;3.67;;;24.60;51.00;;;;;;5030488;28;20196;-70
2022/07/17 09:22:11;;;;;;;4.20;3.30;;;24.70;51.60;;;;;;5026963;28;20222;-67
2022/07/17 09:24:43;;;;;;;3.40;3.10;;;24.80;51.70;;;;;;5011102;28;20455;-68
2022/07/17 09:27:10;;;;;;;6.50;3.57;;;24.90;51.60;;;;;;5007594;28;20479;-68
2022/07/17 09:29:51;;;;;;;3.73;3.40;;;24.90;51.20;;;;;;5026711;28;21099;-67
2022/07/17 09:32:23;;;;;;;4.30;3.17;;;25.00;50.30;;;;;;5007187;28;20439;-67
2022/07/17 09:35:06;;;;;;;;;;;;;;;;;;;;;
2022/07/17 09:37:34;;;;;;;3.70;3.10;;;25.20;50.20;;;;;;5026727;28;20832;-67
2022/07/17 09:40:01;;;;;;;4.13;3.40;;;25.30;49.40;;;;;;5003970;28;20466;-68
2022/07/17 09:42:33;;;;;;;3.30;3.00;;;25.30;49.20;;;;;;5002209;28;20500;-68
2022/07/17 09:45:05;;;;;;;3.27;2.97;;;25.40;49.20;;;;;;5023947;28;20972;-68
2022/07/17 09:47:32;;;;;;;5.60;4.40;;;25.50;49.10;;;;;;5025601;28;20474;-68
2022/07/17 09:49:59;;;;;;;5.47;4.00;;;25.50;48.90;;;;;;5022200;28;20460;-68
2022/07/17 09:52:30;;;;;;;6.00;3.30;;;25.60;48.90;;;;;;5027668;28;20886;-68
2022/07/17 09:54:57;;;;;;;3.67;3.37;;;25.60;49.00;;;;;;5008703;28;20435;-68
2022/07/17 09:57:28;;;;;;;5.97;3.17;;;25.70;49.20;;;;;;5025966;28;20988;-68
2022/07/17 09:59:57;;;;;;;3.30;2.93;;;25.80;48.30;;;;;;5024534;28;20587;-68
2022/07/17 10:02:24;;;;;;;3.57;3.27;;;25.80;48.50;;;;;;5031678;28;21418;-68
2022/07/17 10:04:51;;;;;;;4.20;3.10;;;25.90;48.60;;;;;;5027428;28;20423;-68
2022/07/17 10:07:17;;;;;;;5.03;3.17;;;25.90;48.80;;;;;;5027707;28;20648;-68
2022/07/17 10:09:43;;;;;;;4.40;3.00;;;26.00;48.10;;;;;;5020851;28;20534;-68
2022/07/17 10:12:09;;;;;;;3.20;2.90;;;26.10;48.50;;;;;;5005029;28;20220;-68
2022/07/17 10:14:38;;;;;;;3.63;3.33;;;26.10;48.10;;;;;;5009077;28;20435;-69
2022/07/17 10:17:12;;;;;;;4.83;3.20;;;26.10;48.50;;;;;;5020139;28;20482;-67
2022/07/17 10:19:50;;;;;;;3.47;2.80;;;26.20;48.00;;;;;;5006631;28;20961;-66
2022/07/17 10:22:16;;;;;;;3.10;2.80;;;26.20;47.30;;;;;;5020707;28;20443;-65
2022/07/17 10:25:04;;;;;;;4.50;3.00;;;26.30;46.30;;;;;;5005113;28;20898;-66
2022/07/17 10:27:30;;;;;;;3.00;2.60;;;26.40;46.40;;;;;;5012513;28;20455;-68
2022/07/17 10:30:28;;;;;;;3.77;3.47;;;26.50;46.00;;;;;;5022191;28;20851;-68
2022/07/17 10:32:58;;;;;;;2.87;2.57;;;26.60;45.20;;;;;;5021425;28;20444;-67
2022/07/17 10:35:25;;;;;;;5.47;3.70;;;26.60;45.40;;;;;;5029433;28;20435;-69
2022/07/17 10:37:51;;;;;;;3.90;3.50;;;26.60;45.50;;;;;;5021662;28;20815;-66
2022/07/17 10:40:19;;;;;;;3.03;2.73;;;26.60;45.40;;;;;;5007084;28;20510;-66
2022/07/17 10:42:56;;;;;;;2.97;2.77;;;26.70;45.50;;;;;;5024553;28;20433;-65
2022/07/17 10:45:24;;;;;;;3.60;3.17;;;26.80;45.50;;;;;;5011770;28;20498;-67
2022/07/17 10:47:51;;;;;;;3.00;2.70;;;26.90;44.20;;;;;;5019408;28;20414;-66
2022/07/17 10:50:30;;;;;;;4.43;2.50;;;27.00;43.50;;;;;;4997435;28;20745;-65
2022/07/17 10:53:10;;;;;;;3.30;2.97;;;27.10;43.70;;;;;;5004928;28;20439;-63
2022/07/17 10:55:39;;;;;;;4.40;2.87;;;27.10;43.80;;;;;;5015175;28;20517;-63
2022/07/17 10:58:33;;;;;;;2.93;2.73;;;27.20;43.50;;;;;;5008092;28;20562;-65
2022/07/17 11:01:13;;;;;;;3.30;3.00;;;27.30;43.90;;;;;;4996795;28;20519;-65
2022/07/17 11:03:50;;;;;;;2.70;2.50;;;27.30;43.30;;;;;;5015755;28;21652;-66
2022/07/17 11:06:16;;;;;;;4.00;3.10;;;27.40;41.20;;;;;;5020391;28;20466;-66
2022/07/17 11:09:06;;;;;;;7.00;2.77;;;27.50;41.60;;;;;;5000111;28;21469;-66
2022/07/17 11:11:47;;;;;;;3.27;2.97;;;27.50;42.30;;;;;;5011586;23;21020;-68
2022/07/17 11:14:19;;;;;;;6.00;3.20;;;27.60;41.80;;;;;;4989139;28;20696;-67
2022/07/17 11:16:56;;;;;;;3.23;2.93;;;27.60;41.50;;;;;;4995602;28;21034;-67
2022/07/17 11:19:39;;;;;;;3.13;2.73;;;27.70;41.20;;;;;;4986665;28;21093;-68
2022/07/17 11:22:19;;;;;;;3.03;2.73;;;27.90;41.90;;;;;;4990154;28;21205;-68
2022/07/17 11:24:47;;;;;;;3.10;2.53;;;28.00;41.20;;;;;;5009680;28;20444;-68
2022/07/17 11:27:32;;;;;;;3.20;2.90;;;28.10;38.60;;;;;;4997713;28;20988;-68
2022/07/17 11:30:01;;;;;;;3.13;2.57;;;28.10;39.30;;;;;;5002871;28;20505;-67
2022/07/17 11:32:58;;;;;;;2.80;2.37;;;28.20;39.00;;;;;;5029681;22;20745;-67
2022/07/17 11:35:45;;;;;;;3.13;2.70;;;28.30;39.60;;;;;;5034658;28;20534;-66
2022/07/17 11:38:16;;;;;;;3.40;3.10;;;28.40;40.00;;;;;;5030194;28;20427;-67
2022/07/17 11:41:02;;;;;;;;;;;;;;;;;;;;;
2022/07/17 11:44:06;;;;;;;3.07;2.50;;;28.60;38.20;;;;;;5001518;28;20493;-68
2022/07/17 11:46:52;;;;;;;2.70;2.50;;;28.80;38.80;;;;;;5010477;28;20551;-67
2022/07/17 11:49:33;;;;;;;3.13;2.80;;;29.10;38.60;;;;;;5012404;28;20954;-67
2022/07/17 11:52:07;;;;;;;3.47;3.03;;;29.30;38.80;;;;;;5029598;22;20725;-67
2022/07/17 11:55:03;;;;;;;3.27;2.97;;;29.50;38.30;;;;;;5043045;28;20498;-66
2022/07/17 11:57:40;;;;;;;2.77;2.57;;;29.80;37.60;;;;;;5036945;28;20529;-66
2022/07/17 12:00:08;;;;;;;2.73;2.53;;;30.00;36.60;;;;;;5034817;28;20535;-67
2022/07/17 12:02:40;;;;;;;4.23;2.57;;;30.30;36.90;;;;;;5023392;23;20491;-67
2022/07/17 12:05:06;;;;;;;2.43;2.23;;;30.80;35.60;;;;;;5008358;28;20538;-66
2022/07/17 12:07:39;;;;;;;4.10;2.67;;;31.30;34.70;;;;;;5001491;28;20444;-66
2022/07/17 12:10:21;;;;;;;3.60;2.50;;;32.00;34.90;;;;;;5004741;28;20934;-67
2022/07/17 12:12:54;;;;;;;3.03;2.83;;;33.80;33.20;;;;;;5008779;28;20487;-67
2022/07/17 12:15:20;;;;;;;2.80;2.60;;;36.10;31.60;;;;;;5007513;28;20436;-67
2022/07/17 12:17:46;;;;;;;2.73;2.53;;;37.90;30.60;;;;;;5012855;28;20443;-67
2022/07/17 12:20:11;;;;;;;2.50;2.30;;;39.50;29.40;;;;;;5009491;28;20439;-68
2022/07/17 12:22:48;;;;;;;2.47;2.23;;;40.70;27.80;;;;;;5010025;28;20201;-67
2022/07/17 12:25:24;;;;;;;2.83;2.50;;;41.90;26.80;;;;;;5007693;28;20177;-67
2022/07/17 12:27:50;;;;;;;2.60;2.40;;;42.90;26.40;;;;;;5012518;28;20439;-67
2022/07/17 12:30:15;;;;;;;2.97;2.67;;;43.70;26.30;;;;;;5009287;28;20493;-67
2022/07/17 12:32:41;;;;;;;2.70;2.50;;;44.30;24.40;;;;;;5011546;28;20215;-67
2022/07/17 12:35:07;;;;;;;2.60;2.40;;;44.10;23.80;;;;;;5008681;28;20315;-67
2022/07/17 12:37:33;;;;;;;3.10;2.20;;;44.60;24.80;;;;;;5008616;28;20208;-67
2022/07/17 12:39:58;;;;;;;2.90;2.70;;;45.20;24.60;;;;;;5012885;28;20525;-67
2022/07/17 12:42:24;;;;;;;2.70;2.50;;;44.70;23.60;;;;;;5008609;28;20204;-67
2022/07/17 12:44:49;;;;;;;2.80;2.60;;;44.70;24.40;;;;;;5009217;28;20203;-67
2022/07/17 12:47:15;;;;;;;2.60;2.40;;;44.80;24.00;;;;;;5010196;28;20576;-67
2022/07/17 12:49:41;;;;;;;2.37;2.17;;;44.90;24.00;;;;;;5008375;28;20199;-67
2022/07/17 12:52:07;;;;;;;2.87;2.67;;;44.90;23.40;;;;;;5008205;28;20200;-67